sensor_id;sensor_type;location;lat;lon;timestamp;P1;durP1;ratioP1;P2;durP2;ratioP2
30697;SDS011;17448;47.200;10.902;2023-05-10T04:43:29;4.82;;;1.38;;
30697;SDS011;17448;47.200;10.902;2023-05-10T04:45:58;3.55;;;1.00;;
30697;SDS011;17448;47.200;10.902;2023-05-10T04:48:25;3.72;;;1.42;;
30697;SDS011;17448;47.200;10.902;2023-05-10T04:50:52;2.13;;;1.50;;
30697;SDS011;17448;47.200;10.902;2023-05-10T04:53:18;1.92;;;1.15;;
30697;SDS011;17448;47.200;10.902;2023-05-10T04:55:44;3.38;;;1.23;;
30697;SDS011;17448;47.200;10.902;2023-05-10T04:58:12;6.60;;;1.50;;
30697;SDS011;17448;47.200;10.902;2023-05-10T05:00:38;0.95;;;0.88;;
30697;SDS011;17448;47.200;10.902;2023-05-10T05:03:04;2.50;;;0.98;;
30697;SDS011;17448;47.200;10.902;2023-05-10T05:05:30;5.43;;;2.08;;
30697;SDS011;17448;47.200;10.902;2023-05-10T05:07:56;5.30;;;1.40;;
30697;SDS011;17448;47.200;10.902;2023-05-10T05:10:22;8.25;;;1.67;;
30697;SDS011;17448;47.200;10.902;2023-05-10T05:12:49;4.38;;;1.90;;
30697;SDS011;17448;47.200;10.902;2023-05-10T05:15:18;4.50;;;2.00;;
30697;SDS011;17448;47.200;10.902;2023-05-10T05:17:44;4.10;;;2.08;;
30697;SDS011;17448;47.200;10.902;2023-05-10T05:20:10;4.10;;;1.75;;
30697;SDS011;17448;47.200;10.902;2023-05-10T05:22:38;6.57;;;1.42;;
30697;SDS011;17448;47.200;10.902;2023-05-10T05:25:04;1.98;;;1.20;;
30697;SDS011;17448;47.200;10.902;2023-05-10T05:27:31;2.05;;;1.40;;
30697;SDS011;17448;47.200;10.902;2023-05-10T05:29:57;1.90;;;0.95;;
30697;SDS011;17448;47.200;10.902;2023-05-10T05:32:23;3.05;;;1.73;;
30697;SDS011;17448;47.200;10.902;2023-05-10T05:34:50;5.75;;;2.22;;
30697;SDS011;17448;47.200;10.902;2023-05-10T05:37:17;4.88;;;2.30;;
30697;SDS011;17448;47.200;10.902;2023-05-10T05:39:43;4.15;;;2.15;;
30697;SDS011;17448;47.200;10.902;2023-05-10T05:42:10;5.32;;;2.67;;
30697;SDS011;17448;47.200;10.902;2023-05-10T05:44:36;4.72;;;2.00;;
30697;SDS011;17448;47.200;10.902;2023-05-10T05:47:02;5.72;;;1.80;;
30697;SDS011;17448;47.200;10.902;2023-05-10T05:49:28;6.13;;;2.70;;
30697;SDS011;17448;47.200;10.902;2023-05-10T05:51:58;10.18;;;2.60;;
30697;SDS011;17448;47.200;10.902;2023-05-10T05:54:24;4.72;;;2.42;;
30697;SDS011;17448;47.200;10.902;2023-05-10T05:56:53;6.00;;;2.30;;
30697;SDS011;17448;47.200;10.902;2023-05-10T05:59:19;4.28;;;2.10;;
30697;SDS011;17448;47.200;10.902;2023-05-10T06:01:45;4.97;;;2.65;;
30697;SDS011;17448;47.200;10.902;2023-05-10T06:04:11;5.13;;;2.65;;
30697;SDS011;17448;47.200;10.902;2023-05-10T06:06:38;4.57;;;2.65;;
30697;SDS011;17448;47.200;10.902;2023-05-10T06:09:04;3.65;;;2.15;;
30697;SDS011;17448;47.200;10.902;2023-05-10T06:11:30;3.80;;;2.10;;
30697;SDS011;17448;47.200;10.902;2023-05-10T06:13:59;12.02;;;2.65;;
30697;SDS011;17448;47.200;10.902;2023-05-10T06:16:26;3.88;;;2.70;;
30697;SDS011;17448;47.200;10.902;2023-05-10T06:18:53;2.90;;;2.10;;
30697;SDS011;17448;47.200;10.902;2023-05-10T06:21:19;5.78;;;2.20;;
30697;SDS011;17448;47.200;10.902;2023-05-10T06:23:45;6.30;;;2.67;;
30697;SDS011;17448;47.200;10.902;2023-05-10T06:26:11;3.00;;;2.53;;
30697;SDS011;17448;47.200;10.902;2023-05-10T06:28:39;5.18;;;2.78;;
30697;SDS011;17448;47.200;10.902;2023-05-10T06:31:05;3.50;;;2.53;;
30697;SDS011;17448;47.200;10.902;2023-05-10T06:33:31;5.57;;;2.58;;
30697;SDS011;17448;47.200;10.902;2023-05-10T06:35:58;7.85;;;2.65;;
30697;SDS011;17448;47.200;10.902;2023-05-10T06:38:24;4.35;;;2.03;;
30697;SDS011;17448;47.200;10.902;2023-05-10T06:40:50;2.97;;;1.42;;
30697;SDS011;17448;47.200;10.902;2023-05-10T06:43:16;5.97;;;1.58;;
30697;SDS011;17448;47.200;10.902;2023-05-10T06:45:42;4.80;;;2.00;;
30697;SDS011;17448;47.200;10.902;2023-05-10T06:48:09;3.17;;;2.40;;
30697;SDS011;17448;47.200;10.902;2023-05-10T06:50:35;6.53;;;3.05;;
30697;SDS011;17448;47.200;10.902;2023-05-10T06:53:01;3.72;;;2.60;;
30697;SDS011;17448;47.200;10.902;2023-05-10T06:55:27;6.53;;;3.92;;
30697;SDS011;17448;47.200;10.902;2023-05-10T06:57:57;4.10;;;2.65;;
30697;SDS011;17448;47.200;10.902;2023-05-10T07:00:23;4.18;;;2.28;;
30697;SDS011;17448;47.200;10.902;2023-05-10T07:02:49;4.00;;;1.98;;
30697;SDS011;17448;47.200;10.902;2023-05-10T07:05:18;3.60;;;1.83;;
30697;SDS011;17448;47.200;10.902;2023-05-10T07:07:45;3.92;;;1.60;;
30697;SDS011;17448;47.200;10.902;2023-05-10T07:10:11;2.35;;;1.52;;
30697;SDS011;17448;47.200;10.902;2023-05-10T07:12:37;4.40;;;2.22;;
30697;SDS011;17448;47.200;10.902;2023-05-10T07:15:03;5.53;;;2.40;;
30697;SDS011;17448;47.200;10.902;2023-05-10T07:17:30;4.60;;;2.20;;
30697;SDS011;17448;47.200;10.902;2023-05-10T07:19:56;7.68;;;2.25;;
30697;SDS011;17448;47.200;10.902;2023-05-10T07:22:23;2.78;;;1.27;;
30697;SDS011;17448;47.200;10.902;2023-05-10T07:24:49;4.00;;;1.80;;
30697;SDS011;17448;47.200;10.902;2023-05-10T07:27:15;3.05;;;1.02;;
30697;SDS011;17448;47.200;10.902;2023-05-10T07:29:41;1.13;;;1.02;;
30697;SDS011;17448;47.200;10.902;2023-05-10T07:32:08;2.20;;;1.23;;
30697;SDS011;17448;47.200;10.902;2023-05-10T07:34:34;2.53;;;1.40;;
30697;SDS011;17448;47.200;10.902;2023-05-10T07:37:00;1.63;;;1.10;;
30697;SDS011;17448;47.200;10.902;2023-05-10T07:39:27;1.65;;;1.05;;
30697;SDS011;17448;47.200;10.902;2023-05-10T07:41:53;0.85;;;0.85;;
30697;SDS011;17448;47.200;10.902;2023-05-10T07:44:19;2.78;;;0.95;;
30697;SDS011;17448;47.200;10.902;2023-05-10T07:46:46;1.60;;;0.80;;
30697;SDS011;17448;47.200;10.902;2023-05-10T07:49:12;2.15;;;1.00;;
30697;SDS011;17448;47.200;10.902;2023-05-10T07:51:39;1.25;;;1.15;;
30697;SDS011;17448;47.200;10.902;2023-05-10T07:54:05;3.35;;;1.20;;
30697;SDS011;17448;47.200;10.902;2023-05-10T07:56:31;2.90;;;1.15;;
30697;SDS011;17448;47.200;10.902;2023-05-10T07:58:58;2.15;;;1.30;;
30697;SDS011;17448;47.200;10.902;2023-05-10T08:01:25;1.63;;;1.08;;
30697;SDS011;17448;47.200;10.902;2023-05-10T08:03:51;1.88;;;1.00;;
30697;SDS011;17448;47.200;10.902;2023-05-10T08:06:19;2.53;;;0.93;;
30697;SDS011;17448;47.200;10.902;2023-05-10T08:08:46;3.50;;;1.00;;
30697;SDS011;17448;47.200;10.902;2023-05-10T08:11:16;3.22;;;0.82;;
30697;SDS011;17448;47.200;10.902;2023-05-10T08:13:42;2.80;;;0.90;;
30697;SDS011;17448;47.200;10.902;2023-05-10T08:16:08;2.30;;;1.20;;
30697;SDS011;17448;47.200;10.902;2023-05-10T08:18:34;2.38;;;0.82;;
30697;SDS011;17448;47.200;10.902;2023-05-10T08:21:01;3.45;;;1.25;;
30697;SDS011;17448;47.200;10.902;2023-05-10T08:23:27;0.90;;;0.70;;
30697;SDS011;17448;47.200;10.902;2023-05-10T08:25:53;2.25;;;0.88;;
30697;SDS011;17448;47.200;10.902;2023-05-10T08:28:19;3.03;;;0.98;;
30697;SDS011;17448;47.200;10.902;2023-05-10T08:30:45;1.20;;;0.63;;
30697;SDS011;17448;47.200;10.902;2023-05-10T08:33:11;1.00;;;0.57;;
30697;SDS011;17448;47.200;10.902;2023-05-10T08:35:37;1.05;;;0.60;;
30697;SDS011;17448;47.200;10.902;2023-05-10T08:38:04;1.65;;;0.70;;
30697;SDS011;17448;47.200;10.902;2023-05-10T08:40:30;3.00;;;0.60;;
30697;SDS011;17448;47.200;10.902;2023-05-10T08:42:59;0.55;;;0.55;;
30697;SDS011;17448;47.200;10.902;2023-05-10T08:45:29;0.60;;;0.60;;
30697;SDS011;17448;47.200;10.902;2023-05-10T08:47:58;1.05;;;0.60;;
30697;SDS011;17448;47.200;10.902;2023-05-10T08:50:25;0.50;;;0.50;;
30697;SDS011;17448;47.200;10.902;2023-05-10T08:52:51;1.15;;;1.08;;
30697;SDS011;17448;47.200;10.902;2023-05-10T08:55:18;1.00;;;0.90;;
30697;SDS011;17448;47.200;10.902;2023-05-10T08:57:45;2.33;;;1.23;;
30697;SDS011;17448;47.200;10.902;2023-05-10T09:00:11;1.50;;;1.10;;
30697;SDS011;17448;47.200;10.902;2023-05-10T09:02:38;2.33;;;1.60;;
30697;SDS011;17448;47.200;10.902;2023-05-10T09:05:04;2.92;;;1.55;;
30697;SDS011;17448;47.200;10.902;2023-05-10T09:07:30;2.72;;;1.20;;
30697;SDS011;17448;47.200;10.902;2023-05-10T09:09:57;4.05;;;1.30;;
30697;SDS011;17448;47.200;10.902;2023-05-10T09:12:23;1.95;;;1.02;;
30697;SDS011;17448;47.200;10.902;2023-05-10T09:14:50;1.65;;;1.05;;
30697;SDS011;17448;47.200;10.902;2023-05-10T09:17:18;2.60;;;1.27;;
30697;SDS011;17448;47.200;10.902;2023-05-10T09:19:44;4.05;;;1.85;;
30697;SDS011;17448;47.200;10.902;2023-05-10T09:22:11;3.25;;;1.30;;
30697;SDS011;17448;47.200;10.902;2023-05-10T09:24:37;2.60;;;1.40;;
30697;SDS011;17448;47.200;10.902;2023-05-10T09:27:07;2.10;;;1.10;;
30697;SDS011;17448;47.200;10.902;2023-05-10T09:29:41;1.63;;;1.20;;
30697;SDS011;17448;47.200;10.902;2023-05-10T09:32:07;3.67;;;1.52;;
30697;SDS011;17448;47.200;10.902;2023-05-10T09:34:33;1.80;;;1.13;;
30697;SDS011;17448;47.200;10.902;2023-05-10T09:37:01;1.45;;;1.10;;
30697;SDS011;17448;47.200;10.902;2023-05-10T09:39:33;1.02;;;0.90;;
30697;SDS011;17448;47.200;10.902;2023-05-10T09:41:59;1.20;;;0.70;;
30697;SDS011;17448;47.200;10.902;2023-05-10T09:44:26;3.55;;;0.95;;
30697;SDS011;17448;47.200;10.902;2023-05-10T09:46:52;0.85;;;0.80;;
30697;SDS011;17448;47.200;10.902;2023-05-10T09:49:20;1.10;;;1.00;;
30697;SDS011;17448;47.200;10.902;2023-05-10T09:51:46;0.60;;;0.60;;
30697;SDS011;17448;47.200;10.902;2023-05-10T09:54:13;0.70;;;0.70;;
30697;SDS011;17448;47.200;10.902;2023-05-10T09:56:40;1.33;;;1.23;;
30697;SDS011;17448;47.200;10.902;2023-05-10T09:59:09;1.25;;;1.02;;
30697;SDS011;17448;47.200;10.902;2023-05-10T10:01:36;2.25;;;1.25;;
30697;SDS011;17448;47.200;10.902;2023-05-10T10:04:06;1.38;;;1.27;;
30697;SDS011;17448;47.200;10.902;2023-05-10T10:06:39;1.05;;;1.00;;
30697;SDS011;17448;47.200;10.902;2023-05-10T10:11:31;3.15;;;1.10;;
30697;SDS011;17448;47.200;10.902;2023-05-10T10:13:58;2.53;;;0.90;;
30697;SDS011;17448;47.200;10.902;2023-05-10T10:16:27;1.50;;;1.20;;
30697;SDS011;17448;47.200;10.902;2023-05-10T10:18:53;1.42;;;1.00;;
30697;SDS011;17448;47.200;10.902;2023-05-10T10:35:44;2.67;;;0.90;;
30697;SDS011;17448;47.200;10.902;2023-05-10T10:38:12;2.97;;;0.90;;
30697;SDS011;17448;47.200;10.902;2023-05-10T10:40:39;1.75;;;0.65;;
30697;SDS011;17448;47.200;10.902;2023-05-10T10:48:34;2.92;;;1.20;;
30697;SDS011;17448;47.200;10.902;2023-05-10T10:51:04;2.22;;;0.82;;
30697;SDS011;17448;47.200;10.902;2023-05-10T10:53:31;1.75;;;1.10;;
30697;SDS011;17448;47.200;10.902;2023-05-10T10:58:49;1.63;;;0.90;;
30697;SDS011;17448;47.200;10.902;2023-05-10T11:01:18;1.58;;;1.00;;
30697;SDS011;17448;47.200;10.902;2023-05-10T11:06:29;3.13;;;1.45;;
30697;SDS011;17448;47.200;10.902;2023-05-10T11:09:00;0.88;;;0.88;;
30697;SDS011;17448;47.200;10.902;2023-05-10T11:14:38;3.72;;;1.13;;
30697;SDS011;17448;47.200;10.902;2023-05-10T11:20:08;1.08;;;0.98;;
30697;SDS011;17448;47.200;10.902;2023-05-10T11:25:40;2.08;;;1.20;;
30697;SDS011;17448;47.200;10.902;2023-05-10T11:28:07;4.60;;;1.23;;
30697;SDS011;17448;47.200;10.902;2023-05-10T11:30:33;1.60;;;0.75;;
30697;SDS011;17448;47.200;10.902;2023-05-10T11:33:00;5.03;;;1.23;;
30697;SDS011;17448;47.200;10.902;2023-05-10T11:35:27;1.42;;;1.10;;
30697;SDS011;17448;47.200;10.902;2023-05-10T11:37:53;2.88;;;1.58;;
30697;SDS011;17448;47.200;10.902;2023-05-10T11:40:23;1.30;;;1.10;;
30697;SDS011;17448;47.200;10.902;2023-05-10T11:42:50;1.40;;;1.25;;
30697;SDS011;17448;47.200;10.902;2023-05-10T11:45:19;1.45;;;0.95;;
30697;SDS011;17448;47.200;10.902;2023-05-10T11:47:48;2.47;;;0.98;;
30697;SDS011;17448;47.200;10.902;2023-05-10T11:50:18;2.67;;;1.50;;
30697;SDS011;17448;47.200;10.902;2023-05-10T11:52:44;1.30;;;1.20;;
30697;SDS011;17448;47.200;10.902;2023-05-10T11:55:11;18.20;;;3.35;;
30697;SDS011;17448;47.200;10.902;2023-05-10T11:57:38;3.42;;;1.70;;
30697;SDS011;17448;47.200;10.902;2023-05-10T12:00:06;2.00;;;1.50;;
30697;SDS011;17448;47.200;10.902;2023-05-10T12:02:32;4.85;;;1.40;;
30697;SDS011;17448;47.200;10.902;2023-05-10T12:04:59;2.15;;;1.27;;
30697;SDS011;17448;47.200;10.902;2023-05-10T12:07:25;4.82;;;1.80;;
30697;SDS011;17448;47.200;10.902;2023-05-10T12:10:05;4.60;;;2.08;;
30697;SDS011;17448;47.200;10.902;2023-05-10T12:12:35;2.03;;;1.17;;
30697;SDS011;17448;47.200;10.902;2023-05-10T12:15:01;1.52;;;1.15;;
30697;SDS011;17448;47.200;10.902;2023-05-10T12:17:28;4.85;;;1.27;;
30697;SDS011;17448;47.200;10.902;2023-05-10T12:19:58;6.15;;;1.20;;
30697;SDS011;17448;47.200;10.902;2023-05-10T12:22:25;1.55;;;1.08;;
30697;SDS011;17448;47.200;10.902;2023-05-10T12:24:52;1.25;;;1.00;;
30697;SDS011;17448;47.200;10.902;2023-05-10T12:27:18;3.22;;;1.50;;
30697;SDS011;17448;47.200;10.902;2023-05-10T12:29:44;2.55;;;1.40;;
30697;SDS011;17448;47.200;10.902;2023-05-10T12:32:11;1.30;;;1.10;;
30697;SDS011;17448;47.200;10.902;2023-05-10T12:34:37;2.30;;;1.17;;
30697;SDS011;17448;47.200;10.902;2023-05-10T12:37:03;1.70;;;1.10;;
30697;SDS011;17448;47.200;10.902;2023-05-10T12:39:39;2.67;;;0.98;;
30697;SDS011;17448;47.200;10.902;2023-05-10T12:42:06;2.33;;;1.20;;
30697;SDS011;17448;47.200;10.902;2023-05-10T12:44:32;1.63;;;1.20;;
30697;SDS011;17448;47.200;10.902;2023-05-10T12:46:58;1.45;;;1.00;;
30697;SDS011;17448;47.200;10.902;2023-05-10T12:49:25;1.00;;;0.90;;
30697;SDS011;17448;47.200;10.902;2023-05-10T12:51:51;1.23;;;0.90;;
30697;SDS011;17448;47.200;10.902;2023-05-10T12:54:17;2.25;;;0.90;;
30697;SDS011;17448;47.200;10.902;2023-05-10T12:56:43;2.17;;;1.00;;
30697;SDS011;17448;47.200;10.902;2023-05-10T12:59:09;6.90;;;1.20;;
30697;SDS011;17448;47.200;10.902;2023-05-10T13:01:36;2.03;;;1.10;;
30697;SDS011;17448;47.200;10.902;2023-05-10T13:04:02;2.55;;;1.00;;
30697;SDS011;17448;47.200;10.902;2023-05-10T13:06:28;3.38;;;1.17;;
30697;SDS011;17448;47.200;10.902;2023-05-10T13:08:56;2.28;;;1.27;;
30697;SDS011;17448;47.200;10.902;2023-05-10T13:11:22;1.85;;;1.20;;
30697;SDS011;17448;47.200;10.902;2023-05-10T13:13:49;2.92;;;1.20;;
30697;SDS011;17448;47.200;10.902;2023-05-10T13:16:15;1.63;;;0.85;;
30697;SDS011;17448;47.200;10.902;2023-05-10T13:18:41;2.08;;;1.27;;
30697;SDS011;17448;47.200;10.902;2023-05-10T13:21:07;2.88;;;1.30;;
30697;SDS011;17448;47.200;10.902;2023-05-10T13:23:33;1.20;;;1.08;;
30697;SDS011;17448;47.200;10.902;2023-05-10T13:26:00;1.67;;;1.35;;
30697;SDS011;17448;47.200;10.902;2023-05-10T13:28:26;2.97;;;1.30;;
30697;SDS011;17448;47.200;10.902;2023-05-10T13:30:52;1.10;;;1.00;;
30697;SDS011;17448;47.200;10.902;2023-05-10T13:33:19;3.05;;;1.15;;
30697;SDS011;17448;47.200;10.902;2023-05-10T13:35:45;1.23;;;1.10;;
30697;SDS011;17448;47.200;10.902;2023-05-10T13:38:11;3.40;;;0.93;;
30697;SDS011;17448;47.200;10.902;2023-05-10T13:40:37;2.13;;;1.13;;
30697;SDS011;17448;47.200;10.902;2023-05-10T13:43:03;1.10;;;1.00;;
30697;SDS011;17448;47.200;10.902;2023-05-10T13:45:30;1.20;;;1.02;;
30697;SDS011;17448;47.200;10.902;2023-05-10T13:47:56;2.20;;;1.30;;
30697;SDS011;17448;47.200;10.902;2023-05-10T13:50:22;3.00;;;1.30;;
30697;SDS011;17448;47.200;10.902;2023-05-10T13:52:48;1.08;;;0.93;;
30697;SDS011;17448;47.200;10.902;2023-05-10T13:55:15;4.75;;;1.30;;
30697;SDS011;17448;47.200;10.902;2023-05-10T13:57:41;1.30;;;1.20;;
30697;SDS011;17448;47.200;10.902;2023-05-10T14:00:08;3.92;;;1.25;;
30697;SDS011;17448;47.200;10.902;2023-05-10T14:02:34;4.28;;;1.10;;
30697;SDS011;17448;47.200;10.902;2023-05-10T14:05:01;2.08;;;1.20;;
30697;SDS011;17448;47.200;10.902;2023-05-10T14:07:27;1.75;;;0.80;;
30697;SDS011;17448;47.200;10.902;2023-05-10T14:09:54;1.17;;;0.90;;
30697;SDS011;17448;47.200;10.902;2023-05-10T14:12:20;1.60;;;0.90;;
30697;SDS011;17448;47.200;10.902;2023-05-10T14:14:47;1.90;;;1.10;;
30697;SDS011;17448;47.200;10.902;2023-05-10T14:17:13;5.45;;;1.15;;
30697;SDS011;17448;47.200;10.902;2023-05-10T14:19:39;2.65;;;1.52;;
30697;SDS011;17448;47.200;10.902;2023-05-10T14:22:06;1.80;;;1.00;;
30697;SDS011;17448;47.200;10.902;2023-05-10T14:24:32;1.67;;;1.02;;
30697;SDS011;17448;47.200;10.902;2023-05-10T14:26:58;1.50;;;0.85;;
30697;SDS011;17448;47.200;10.902;2023-05-10T14:29:25;2.45;;;0.75;;
30697;SDS011;17448;47.200;10.902;2023-05-10T14:31:51;1.25;;;0.93;;
30697;SDS011;17448;47.200;10.902;2023-05-10T14:34:17;1.00;;;0.60;;
30697;SDS011;17448;47.200;10.902;2023-05-10T14:36:43;0.95;;;0.50;;
30697;SDS011;17448;47.200;10.902;2023-05-10T14:39:09;0.70;;;0.50;;
30697;SDS011;17448;47.200;10.902;2023-05-10T14:41:37;0.60;;;0.60;;
30697;SDS011;17448;47.200;10.902;2023-05-10T14:44:06;3.50;;;0.70;;
30697;SDS011;17448;47.200;10.902;2023-05-10T14:46:32;1.38;;;0.50;;
30697;SDS011;17448;47.200;10.902;2023-05-10T14:48:59;2.85;;;0.90;;
30697;SDS011;17448;47.200;10.902;2023-05-10T14:51:25;3.22;;;1.02;;
30697;SDS011;17448;47.200;10.902;2023-05-10T14:53:51;1.00;;;0.60;;
30697;SDS011;17448;47.200;10.902;2023-05-10T14:56:19;0.70;;;0.68;;
30697;SDS011;17448;47.200;10.902;2023-05-10T14:58:46;2.35;;;0.98;;
30697;SDS011;17448;47.200;10.902;2023-05-10T15:01:12;1.88;;;0.73;;
30697;SDS011;17448;47.200;10.902;2023-05-10T15:03:39;2.70;;;1.08;;
30697;SDS011;17448;47.200;10.902;2023-05-10T15:06:05;6.45;;;0.98;;
30697;SDS011;17448;47.200;10.902;2023-05-10T15:08:31;1.55;;;0.70;;
30697;SDS011;17448;47.200;10.902;2023-05-10T15:10:57;0.98;;;0.60;;
30697;SDS011;17448;47.200;10.902;2023-05-10T15:13:24;0.73;;;0.70;;
30697;SDS011;17448;47.200;10.902;2023-05-10T15:15:50;0.40;;;0.40;;
30697;SDS011;17448;47.200;10.902;2023-05-10T15:18:16;2.42;;;0.60;;
30697;SDS011;17448;47.200;10.902;2023-05-10T15:20:42;3.53;;;1.00;;
30697;SDS011;17448;47.200;10.902;2023-05-10T15:23:08;4.30;;;0.75;;
30697;SDS011;17448;47.200;10.902;2023-05-10T15:25:35;2.60;;;0.80;;
30697;SDS011;17448;47.200;10.902;2023-05-10T15:28:02;2.95;;;0.77;;
30697;SDS011;17448;47.200;10.902;2023-05-10T15:30:28;1.05;;;0.68;;
30697;SDS011;17448;47.200;10.902;2023-05-10T15:32:55;3.78;;;1.65;;
30697;SDS011;17448;47.200;10.902;2023-05-10T15:35:21;3.00;;;0.95;;
30697;SDS011;17448;47.200;10.902;2023-05-10T15:37:47;3.20;;;1.23;;
30697;SDS011;17448;47.200;10.902;2023-05-10T15:40:17;2.53;;;0.90;;
30697;SDS011;17448;47.200;10.902;2023-05-10T15:42:43;3.08;;;1.20;;
30697;SDS011;17448;47.200;10.902;2023-05-10T15:45:10;1.95;;;1.17;;
30697;SDS011;17448;47.200;10.902;2023-05-10T15:47:37;3.00;;;0.90;;
30697;SDS011;17448;47.200;10.902;2023-05-10T15:50:05;1.65;;;0.82;;
30697;SDS011;17448;47.200;10.902;2023-05-10T15:52:31;1.75;;;1.20;;
30697;SDS011;17448;47.200;10.902;2023-05-10T15:54:58;3.35;;;0.95;;
30697;SDS011;17448;47.200;10.902;2023-05-10T15:57:24;2.03;;;1.08;;
30697;SDS011;17448;47.200;10.902;2023-05-10T15:59:51;0.90;;;0.80;;
30697;SDS011;17448;47.200;10.902;2023-05-10T16:02:17;6.03;;;1.55;;
30697;SDS011;17448;47.200;10.902;2023-05-10T16:04:43;3.45;;;1.45;;
30697;SDS011;17448;47.200;10.902;2023-05-10T16:07:10;2.85;;;0.90;;
30697;SDS011;17448;47.200;10.902;2023-05-10T16:09:36;2.53;;;0.80;;
30697;SDS011;17448;47.200;10.902;2023-05-10T16:12:02;1.25;;;0.82;;
30697;SDS011;17448;47.200;10.902;2023-05-10T16:14:29;3.05;;;0.90;;
30697;SDS011;17448;47.200;10.902;2023-05-10T16:16:55;2.05;;;0.70;;
30697;SDS011;17448;47.200;10.902;2023-05-10T16:19:21;0.60;;;0.60;;
30697;SDS011;17448;47.200;10.902;2023-05-10T16:21:48;3.88;;;1.10;;
30697;SDS011;17448;47.200;10.902;2023-05-10T16:24:15;1.33;;;0.77;;
30697;SDS011;17448;47.200;10.902;2023-05-10T16:26:41;1.05;;;0.80;;
30697;SDS011;17448;47.200;10.902;2023-05-10T16:29:07;1.33;;;0.70;;
30697;SDS011;17448;47.200;10.902;2023-05-10T16:31:33;1.38;;;1.13;;
30697;SDS011;17448;47.200;10.902;2023-05-10T16:34:00;2.17;;;1.20;;
30697;SDS011;17448;47.200;10.902;2023-05-10T16:36:26;3.67;;;2.50;;
30697;SDS011;17448;47.200;10.902;2023-05-10T16:38:53;1.08;;;0.82;;
30697;SDS011;17448;47.200;10.902;2023-05-10T16:41:19;0.90;;;0.80;;
30697;SDS011;17448;47.200;10.902;2023-05-10T16:43:45;3.90;;;1.65;;
30697;SDS011;17448;47.200;10.902;2023-05-10T16:46:11;1.33;;;0.70;;
30697;SDS011;17448;47.200;10.902;2023-05-10T16:48:38;1.45;;;0.77;;
30697;SDS011;17448;47.200;10.902;2023-05-10T16:51:04;3.08;;;1.65;;
30697;SDS011;17448;47.200;10.902;2023-05-10T16:53:30;2.60;;;0.70;;
30697;SDS011;17448;47.200;10.902;2023-05-10T16:55:56;0.52;;;0.50;;
30697;SDS011;17448;47.200;10.902;2023-05-10T16:58:23;1.42;;;1.33;;
30697;SDS011;17448;47.200;10.902;2023-05-10T17:00:49;1.70;;;0.75;;
30697;SDS011;17448;47.200;10.902;2023-05-10T17:03:15;1.20;;;0.55;;
30697;SDS011;17448;47.200;10.902;2023-05-10T17:05:41;1.33;;;0.80;;
30697;SDS011;17448;47.200;10.902;2023-05-10T17:08:08;1.10;;;0.70;;
30697;SDS011;17448;47.200;10.902;2023-05-10T17:10:38;0.90;;;0.65;;
30697;SDS011;17448;47.200;10.902;2023-05-10T17:13:05;0.50;;;0.50;;
30697;SDS011;17448;47.200;10.902;2023-05-10T17:15:32;1.27;;;0.50;;
30697;SDS011;17448;47.200;10.902;2023-05-10T17:17:58;2.92;;;1.02;;
30697;SDS011;17448;47.200;10.902;2023-05-10T17:20:24;2.17;;;0.70;;
30697;SDS011;17448;47.200;10.902;2023-05-10T17:22:51;1.50;;;0.73;;
30697;SDS011;17448;47.200;10.902;2023-05-10T17:25:18;2.60;;;0.98;;
30697;SDS011;17448;47.200;10.902;2023-05-10T17:27:45;1.10;;;1.00;;
30697;SDS011;17448;47.200;10.902;2023-05-10T17:30:11;0.68;;;0.60;;
30697;SDS011;17448;47.200;10.902;2023-05-10T17:32:38;0.65;;;0.65;;
30697;SDS011;17448;47.200;10.902;2023-05-10T17:35:04;2.85;;;1.20;;
30697;SDS011;17448;47.200;10.902;2023-05-10T17:37:32;4.07;;;0.75;;
30697;SDS011;17448;47.200;10.902;2023-05-10T17:39:58;2.85;;;0.80;;
30697;SDS011;17448;47.200;10.902;2023-05-10T17:42:24;1.30;;;1.00;;
30697;SDS011;17448;47.200;10.902;2023-05-10T17:44:51;2.05;;;0.85;;
30697;SDS011;17448;47.200;10.902;2023-05-10T17:47:17;1.88;;;0.70;;
30697;SDS011;17448;47.200;10.902;2023-05-10T17:49:43;2.42;;;1.02;;
30697;SDS011;17448;47.200;10.902;2023-05-10T17:52:09;1.35;;;1.00;;
30697;SDS011;17448;47.200;10.902;2023-05-10T17:54:35;1.65;;;1.15;;
30697;SDS011;17448;47.200;10.902;2023-05-10T17:57:02;1.90;;;0.70;;
30697;SDS011;17448;47.200;10.902;2023-05-10T17:59:28;0.65;;;0.60;;
30697;SDS011;17448;47.200;10.902;2023-05-10T18:01:54;1.30;;;0.75;;
30697;SDS011;17448;47.200;10.902;2023-05-10T18:04:20;1.42;;;0.80;;
30697;SDS011;17448;47.200;10.902;2023-05-10T18:06:47;0.80;;;0.70;;
30697;SDS011;17448;47.200;10.902;2023-05-10T18:09:13;0.60;;;0.60;;
30697;SDS011;17448;47.200;10.902;2023-05-10T18:11:40;0.68;;;0.68;;
30697;SDS011;17448;47.200;10.902;2023-05-10T18:14:06;1.30;;;1.00;;
30697;SDS011;17448;47.200;10.902;2023-05-10T18:16:32;0.60;;;0.60;;
30697;SDS011;17448;47.200;10.902;2023-05-10T18:18:58;0.70;;;0.70;;
30697;SDS011;17448;47.200;10.902;2023-05-10T18:21:25;0.98;;;0.57;;
30697;SDS011;17448;47.200;10.902;2023-05-10T18:23:51;1.25;;;0.70;;
30697;SDS011;17448;47.200;10.902;2023-05-10T18:26:17;0.75;;;0.73;;
30697;SDS011;17448;47.200;10.902;2023-05-10T18:28:43;0.95;;;0.70;;
30697;SDS011;17448;47.200;10.902;2023-05-10T18:31:09;0.73;;;0.60;;
30697;SDS011;17448;47.200;10.902;2023-05-10T18:33:36;2.83;;;0.70;;
30697;SDS011;17448;47.200;10.902;2023-05-10T18:36:03;0.70;;;0.70;;
30697;SDS011;17448;47.200;10.902;2023-05-10T18:38:29;6.30;;;0.75;;
30697;SDS011;17448;47.200;10.902;2023-05-10T18:40:56;1.48;;;0.65;;
30697;SDS011;17448;47.200;10.902;2023-05-10T18:43:22;1.00;;;0.60;;
30697;SDS011;17448;47.200;10.902;2023-05-10T18:45:48;1.38;;;0.70;;
30697;SDS011;17448;47.200;10.902;2023-05-10T18:48:15;0.90;;;0.77;;
30697;SDS011;17448;47.200;10.902;2023-05-10T18:50:41;0.80;;;0.80;;
30697;SDS011;17448;47.200;10.902;2023-05-10T18:53:08;2.25;;;0.80;;
30697;SDS011;17448;47.200;10.902;2023-05-10T18:55:34;1.08;;;0.90;;
30697;SDS011;17448;47.200;10.902;2023-05-10T18:58:00;0.68;;;0.68;;
30697;SDS011;17448;47.200;10.902;2023-05-10T19:00:26;1.10;;;0.80;;
30697;SDS011;17448;47.200;10.902;2023-05-10T19:02:55;1.33;;;1.15;;
30697;SDS011;17448;47.200;10.902;2023-05-10T19:05:39;1.48;;;1.25;;
30697;SDS011;17448;47.200;10.902;2023-05-10T19:08:05;1.55;;;1.13;;
30697;SDS011;17448;47.200;10.902;2023-05-10T19:10:32;4.20;;;1.70;;
30697;SDS011;17448;47.200;10.902;2023-05-10T19:12:58;1.00;;;0.90;;
30697;SDS011;17448;47.200;10.902;2023-05-10T19:15:24;1.00;;;0.90;;
30697;SDS011;17448;47.200;10.902;2023-05-10T19:17:50;1.13;;;1.00;;
30697;SDS011;17448;47.200;10.902;2023-05-10T19:20:16;1.20;;;1.10;;
30697;SDS011;17448;47.200;10.902;2023-05-10T19:22:42;1.48;;;1.15;;
30697;SDS011;17448;47.200;10.902;2023-05-10T19:25:09;1.55;;;1.23;;
30697;SDS011;17448;47.200;10.902;2023-05-10T19:27:37;2.28;;;1.30;;
30697;SDS011;17448;47.200;10.902;2023-05-10T19:30:03;5.18;;;1.17;;
30697;SDS011;17448;47.200;10.902;2023-05-10T19:32:29;3.45;;;0.77;;
30697;SDS011;17448;47.200;10.902;2023-05-10T19:34:56;1.02;;;0.77;;
30697;SDS011;17448;47.200;10.902;2023-05-10T19:37:24;1.08;;;0.70;;
30697;SDS011;17448;47.200;10.902;2023-05-10T19:39:50;1.05;;;0.85;;
30697;SDS011;17448;47.200;10.902;2023-05-10T19:42:17;1.23;;;0.95;;
30697;SDS011;17448;47.200;10.902;2023-05-10T19:44:43;1.38;;;0.80;;
30697;SDS011;17448;47.200;10.902;2023-05-10T19:47:11;4.30;;;0.85;;
30697;SDS011;17448;47.200;10.902;2023-05-10T19:49:38;1.63;;;0.52;;